sensor_id;sensor_type;location;lat;lon;timestamp;temperature;humidity
42885;DHT22;28534;48.100;11.584;2024-01-16T00:00:17;21.60;46.80
42885;DHT22;28534;48.100;11.584;2024-01-16T00:01:19;21.60;46.60
42885;DHT22;28534;48.100;11.584;2024-01-16T00:02:21;21.70;46.70
42885;DHT22;28534;48.100;11.584;2024-01-16T00:03:21;21.80;46.70
42885;DHT22;28534;48.100;11.584;2024-01-16T00:04:22;21.70;46.70
42885;DHT22;28534;48.100;11.584;2024-01-16T00:05:24;21.60;46.80
42885;DHT22;28534;48.100;11.584;2024-01-16T00:06:24;21.60;46.90
42885;DHT22;28534;48.100;11.584;2024-01-16T00:07:25;21.60;46.90
42885;DHT22;28534;48.100;11.584;2024-01-16T00:08:26;21.60;46.90
42885;DHT22;28534;48.100;11.584;2024-01-16T00:09:27;21.60;47.00
42885;DHT22;28534;48.100;11.584;2024-01-16T00:10:29;21.60;47.00
42885;DHT22;28534;48.100;11.584;2024-01-16T00:11:29;21.80;47.20
42885;DHT22;28534;48.100;11.584;2024-01-16T00:12:32;21.60;47.10
42885;DHT22;28534;48.100;11.584;2024-01-16T00:13:33;21.70;47.00
42885;DHT22;28534;48.100;11.584;2024-01-16T00:14:35;21.70;47.00
42885;DHT22;28534;48.100;11.584;2024-01-16T00:15:36;21.60;47.00
42885;DHT22;28534;48.100;11.584;2024-01-16T00:16:41;21.70;47.10
42885;DHT22;28534;48.100;11.584;2024-01-16T00:17:42;21.60;47.20
42885;DHT22;28534;48.100;11.584;2024-01-16T00:18:43;21.60;47.40
42885;DHT22;28534;48.100;11.584;2024-01-16T00:19:44;21.60;47.50
42885;DHT22;28534;48.100;11.584;2024-01-16T00:20:46;21.60;47.60
42885;DHT22;28534;48.100;11.584;2024-01-16T00:21:46;21.60;47.80
42885;DHT22;28534;48.100;11.584;2024-01-16T00:22:48;21.60;47.80
42885;DHT22;28534;48.100;11.584;2024-01-16T00:23:48;21.60;47.90
42885;DHT22;28534;48.100;11.584;2024-01-16T00:24:50;21.60;48.00
42885;DHT22;28534;48.100;11.584;2024-01-16T00:25:51;21.80;48.00
42885;DHT22;28534;48.100;11.584;2024-01-16T00:26:52;21.60;47.80
42885;DHT22;28534;48.100;11.584;2024-01-16T00:27:55;21.70;47.80
42885;DHT22;28534;48.100;11.584;2024-01-16T00:28:57;21.70;47.70
42885;DHT22;28534;48.100;11.584;2024-01-16T00:29:57;21.80;47.60
42885;DHT22;28534;48.100;11.584;2024-01-16T00:30:59;21.80;47.50
42885;DHT22;28534;48.100;11.584;2024-01-16T00:31:59;21.90;47.60
42885;DHT22;28534;48.100;11.584;2024-01-16T00:33:01;21.90;47.60
42885;DHT22;28534;48.100;11.584;2024-01-16T00:34:03;21.80;47.60
42885;DHT22;28534;48.100;11.584;2024-01-16T00:35:04;21.70;47.50
42885;DHT22;28534;48.100;11.584;2024-01-16T00:36:05;21.70;47.50
42885;DHT22;28534;48.100;11.584;2024-01-16T00:37:07;21.70;47.50
42885;DHT22;28534;48.100;11.584;2024-01-16T00:38:07;21.70;47.60
42885;DHT22;28534;48.100;11.584;2024-01-16T00:39:09;21.60;47.50
42885;DHT22;28534;48.100;11.584;2024-01-16T00:40:10;21.70;47.70
42885;DHT22;28534;48.100;11.584;2024-01-16T00:41:11;21.70;47.80
42885;DHT22;28534;48.100;11.584;2024-01-16T00:42:14;21.60;47.70
42885;DHT22;28534;48.100;11.584;2024-01-16T00:43:16;21.60;47.80
42885;DHT22;28534;48.100;11.584;2024-01-16T00:44:18;21.60;47.80
42885;DHT22;28534;48.100;11.584;2024-01-16T00:45:18;21.60;47.80
42885;DHT22;28534;48.100;11.584;2024-01-16T00:46:21;21.70;47.80
42885;DHT22;28534;48.100;11.584;2024-01-16T00:47:22;21.60;47.70
42885;DHT22;28534;48.100;11.584;2024-01-16T00:48:24;21.60;47.70
42885;DHT22;28534;48.100;11.584;2024-01-16T00:49:24;21.80;47.80
42885;DHT22;28534;48.100;11.584;2024-01-16T00:50:26;21.70;47.80
42885;DHT22;28534;48.100;11.584;2024-01-16T00:51:27;21.70;47.80
42885;DHT22;28534;48.100;11.584;2024-01-16T00:52:28;21.70;47.80
42885;DHT22;28534;48.100;11.584;2024-01-16T00:53:29;21.60;47.80
42885;DHT22;28534;48.100;11.584;2024-01-16T00:54:30;21.70;48.00
42885;DHT22;28534;48.100;11.584;2024-01-16T00:55:31;21.60;47.90
42885;DHT22;28534;48.100;11.584;2024-01-16T00:56:33;21.60;48.00
42885;DHT22;28534;48.100;11.584;2024-01-16T00:57:34;21.70;47.90
42885;DHT22;28534;48.100;11.584;2024-01-16T00:58:36;21.80;47.90
42885;DHT22;28534;48.100;11.584;2024-01-16T00:59:38;21.70;47.90
42885;DHT22;28534;48.100;11.584;2024-01-16T01:00:38;21.70;47.90
42885;DHT22;28534;48.100;11.584;2024-01-16T01:01:40;21.60;47.90
42885;DHT22;28534;48.100;11.584;2024-01-16T01:02:40;21.70;47.90
42885;DHT22;28534;48.100;11.584;2024-01-16T01:03:42;21.80;47.90
42885;DHT22;28534;48.100;11.584;2024-01-16T01:04:43;21.70;47.80
42885;DHT22;28534;48.100;11.584;2024-01-16T01:05:45;21.70;47.90
42885;DHT22;28534;48.100;11.584;2024-01-16T01:06:45;21.80;48.00
42885;DHT22;28534;48.100;11.584;2024-01-16T01:07:47;21.70;48.00
42885;DHT22;28534;48.100;11.584;2024-01-16T01:08:47;21.80;48.10
42885;DHT22;28534;48.100;11.584;2024-01-16T01:09:49;21.60;48.10
42885;DHT22;28534;48.100;11.584;2024-01-16T01:10:49;21.60;48.10
42885;DHT22;28534;48.100;11.584;2024-01-16T01:11:51;21.60;48.10
42885;DHT22;28534;48.100;11.584;2024-01-16T01:12:52;21.60;48.10
42885;DHT22;28534;48.100;11.584;2024-01-16T01:13:55;21.60;48.10
42885;DHT22;28534;48.100;11.584;2024-01-16T01:14:56;21.70;48.20
42885;DHT22;28534;48.100;11.584;2024-01-16T01:15:57;21.70;48.10
42885;DHT22;28534;48.100;11.584;2024-01-16T01:16:58;21.70;48.20
42885;DHT22;28534;48.100;11.584;2024-01-16T01:18:00;21.60;48.10
42885;DHT22;28534;48.100;11.584;2024-01-16T01:19:00;21.60;48.20
42885;DHT22;28534;48.100;11.584;2024-01-16T01:20:03;21.60;48.40
42885;DHT22;28534;48.100;11.584;2024-01-16T01:21:04;21.60;48.40
42885;DHT22;28534;48.100;11.584;2024-01-16T01:22:06;21.60;48.50
42885;DHT22;28534;48.100;11.584;2024-01-16T01:23:06;21.70;48.50
42885;DHT22;28534;48.100;11.584;2024-01-16T01:24:08;21.60;48.40
42885;DHT22;28534;48.100;11.584;2024-01-16T01:25:09;21.70;48.40
42885;DHT22;28534;48.100;11.584;2024-01-16T01:26:11;21.60;48.40
42885;DHT22;28534;48.100;11.584;2024-01-16T01:27:14;21.70;48.50
42885;DHT22;28534;48.100;11.584;2024-01-16T01:28:15;21.60;48.60
42885;DHT22;28534;48.100;11.584;2024-01-16T01:29:17;21.60;48.80
42885;DHT22;28534;48.100;11.584;2024-01-16T01:30:19;21.60;48.90
42885;DHT22;28534;48.100;11.584;2024-01-16T01:31:19;21.60;48.80
42885;DHT22;28534;48.100;11.584;2024-01-16T01:32:21;21.70;48.90
42885;DHT22;28534;48.100;11.584;2024-01-16T01:33:21;21.60;48.90
42885;DHT22;28534;48.100;11.584;2024-01-16T01:34:23;21.50;49.00
42885;DHT22;28534;48.100;11.584;2024-01-16T01:35:24;21.60;48.90
42885;DHT22;28534;48.100;11.584;2024-01-16T01:36:24;21.60;49.20
42885;DHT22;28534;48.100;11.584;2024-01-16T01:37:26;21.60;49.00
42885;DHT22;28534;48.100;11.584;2024-01-16T01:38:27;21.60;48.90
42885;DHT22;28534;48.100;11.584;2024-01-16T01:39:28;21.60;48.80
42885;DHT22;28534;48.100;11.584;2024-01-16T01:40:29;21.60;48.70
42885;DHT22;28534;48.100;11.584;2024-01-16T01:41:31;21.60;48.80
42885;DHT22;28534;48.100;11.584;2024-01-16T01:42:31;21.70;48.90
42885;DHT22;28534;48.100;11.584;2024-01-16T01:43:32;21.60;48.80
42885;DHT22;28534;48.100;11.584;2024-01-16T01:44:35;21.60;48.80
42885;DHT22;28534;48.100;11.584;2024-01-16T01:45:35;21.60;48.90
42885;DHT22;28534;48.100;11.584;2024-01-16T01:46:37;21.60;49.00
42885;DHT22;28534;48.100;11.584;2024-01-16T01:47:38;21.60;48.90
42885;DHT22;28534;48.100;11.584;2024-01-16T01:48:40;21.60;48.90
42885;DHT22;28534;48.100;11.584;2024-01-16T01:49:41;21.70;49.00
42885;DHT22;28534;48.100;11.584;2024-01-16T01:50:44;21.70;49.00
42885;DHT22;28534;48.100;11.584;2024-01-16T01:51:44;21.70;49.00
42885;DHT22;28534;48.100;11.584;2024-01-16T01:52:46;21.60;49.00
42885;DHT22;28534;48.100;11.584;2024-01-16T01:53:47;21.60;49.00
42885;DHT22;28534;48.100;11.584;2024-01-16T01:54:48;21.60;49.00
42885;DHT22;28534;48.100;11.584;2024-01-16T01:55:50;21.60;49.10
42885;DHT22;28534;48.100;11.584;2024-01-16T01:56:51;21.60;49.00
42885;DHT22;28534;48.100;11.584;2024-01-16T01:57:53;21.70;48.80
42885;DHT22;28534;48.100;11.584;2024-01-16T01:58:54;21.70;48.90
42885;DHT22;28534;48.100;11.584;2024-01-16T01:59:58;21.60;48.90
42885;DHT22;28534;48.100;11.584;2024-01-16T02:00:59;21.80;49.00
42885;DHT22;28534;48.100;11.584;2024-01-16T02:02:00;21.70;49.10
42885;DHT22;28534;48.100;11.584;2024-01-16T02:03:02;21.70;48.80
42885;DHT22;28534;48.100;11.584;2024-01-16T02:04:03;21.80;48.80
42885;DHT22;28534;48.100;11.584;2024-01-16T02:05:05;21.80;48.80
42885;DHT22;28534;48.100;11.584;2024-01-16T02:06:06;21.70;49.50
42885;DHT22;28534;48.100;11.584;2024-01-16T02:07:08;21.70;49.10
42885;DHT22;28534;48.100;11.584;2024-01-16T02:08:09;21.70;49.10
42885;DHT22;28534;48.100;11.584;2024-01-16T02:09:11;21.70;49.00
42885;DHT22;28534;48.100;11.584;2024-01-16T02:10:13;21.60;48.90
42885;DHT22;28534;48.100;11.584;2024-01-16T02:11:15;21.70;49.00
42885;DHT22;28534;48.100;11.584;2024-01-16T02:12:16;21.70;48.90
42885;DHT22;28534;48.100;11.584;2024-01-16T02:13:18;21.70;49.00
42885;DHT22;28534;48.100;11.584;2024-01-16T02:14:21;21.70;49.00
42885;DHT22;28534;48.100;11.584;2024-01-16T02:15:24;21.60;49.00
42885;DHT22;28534;48.100;11.584;2024-01-16T02:16:24;21.60;49.00
42885;DHT22;28534;48.100;11.584;2024-01-16T02:17:26;21.60;48.90
42885;DHT22;28534;48.100;11.584;2024-01-16T02:18:27;21.70;48.90
42885;DHT22;28534;48.100;11.584;2024-01-16T02:19:28;21.70;48.90
42885;DHT22;28534;48.100;11.584;2024-01-16T02:20:29;21.70;48.90
42885;DHT22;28534;48.100;11.584;2024-01-16T02:21:31;21.90;49.00
42885;DHT22;28534;48.100;11.584;2024-01-16T02:22:34;21.70;48.90
42885;DHT22;28534;48.100;11.584;2024-01-16T02:23:38;21.70;48.90
42885;DHT22;28534;48.100;11.584;2024-01-16T02:24:39;22.50;49.30
42885;DHT22;28534;48.100;11.584;2024-01-16T02:25:41;21.80;49.10
42885;DHT22;28534;48.100;11.584;2024-01-16T02:26:42;21.60;49.20
42885;DHT22;28534;48.100;11.584;2024-01-16T02:27:43;21.60;49.30
42885;DHT22;28534;48.100;11.584;2024-01-16T02:28:44;21.60;49.40
42885;DHT22;28534;48.100;11.584;2024-01-16T02:29:46;21.60;49.30
42885;DHT22;28534;48.100;11.584;2024-01-16T02:30:46;21.60;49.10
42885;DHT22;28534;48.100;11.584;2024-01-16T02:31:48;21.80;49.30
42885;DHT22;28534;48.100;11.584;2024-01-16T02:32:48;21.70;49.50
42885;DHT22;28534;48.100;11.584;2024-01-16T02:33:50;21.60;49.60
42885;DHT22;28534;48.100;11.584;2024-01-16T02:34:50;21.60;49.30
42885;DHT22;28534;48.100;11.584;2024-01-16T02:35:52;21.60;49.30
42885;DHT22;28534;48.100;11.584;2024-01-16T02:36:53;21.60;49.30
42885;DHT22;28534;48.100;11.584;2024-01-16T02:37:54;21.60;49.30
42885;DHT22;28534;48.100;11.584;2024-01-16T02:38:56;21.60;49.30
42885;DHT22;28534;48.100;11.584;2024-01-16T02:39:58;21.60;49.30
42885;DHT22;28534;48.100;11.584;2024-01-16T02:40:59;21.50;49.60
42885;DHT22;28534;48.100;11.584;2024-01-16T02:42:00;21.50;49.60
42885;DHT22;28534;48.100;11.584;2024-01-16T02:43:01;21.50;49.70
42885;DHT22;28534;48.100;11.584;2024-01-16T02:44:03;21.60;49.70
42885;DHT22;28534;48.100;11.584;2024-01-16T02:45:04;21.60;49.50
42885;DHT22;28534;48.100;11.584;2024-01-16T02:46:05;21.60;49.60
42885;DHT22;28534;48.100;11.584;2024-01-16T02:47:06;21.60;49.40
42885;DHT22;28534;48.100;11.584;2024-01-16T02:48:08;21.60;49.40
42885;DHT22;28534;48.100;11.584;2024-01-16T02:49:08;21.70;49.40
42885;DHT22;28534;48.100;11.584;2024-01-16T02:50:10;21.80;49.40
42885;DHT22;28534;48.100;11.584;2024-01-16T02:51:11;21.60;49.30
42885;DHT22;28534;48.100;11.584;2024-01-16T02:52:12;21.70;49.40
42885;DHT22;28534;48.100;11.584;2024-01-16T02:53:13;21.70;49.30
42885;DHT22;28534;48.100;11.584;2024-01-16T02:54:15;21.60;49.30
42885;DHT22;28534;48.100;11.584;2024-01-16T02:55:17;21.80;49.60
42885;DHT22;28534;48.100;11.584;2024-01-16T02:56:17;21.70;49.70
42885;DHT22;28534;48.100;11.584;2024-01-16T02:57:18;21.60;49.60
42885;DHT22;28534;48.100;11.584;2024-01-16T02:58:19;21.70;49.50
42885;DHT22;28534;48.100;11.584;2024-01-16T02:59:20;21.70;49.50
42885;DHT22;28534;48.100;11.584;2024-01-16T03:00:22;21.60;49.40
42885;DHT22;28534;48.100;11.584;2024-01-16T03:01:23;21.70;49.30
42885;DHT22;28534;48.100;11.584;2024-01-16T03:02:24;21.80;49.50
42885;DHT22;28534;48.100;11.584;2024-01-16T03:03:26;21.80;49.30
42885;DHT22;28534;48.100;11.584;2024-01-16T03:04:28;21.70;49.30
42885;DHT22;28534;48.100;11.584;2024-01-16T03:05:29;21.80;49.30
42885;DHT22;28534;48.100;11.584;2024-01-16T03:06:29;21.60;49.40
42885;DHT22;28534;48.100;11.584;2024-01-16T03:07:31;21.60;49.30
42885;DHT22;28534;48.100;11.584;2024-01-16T03:08:31;21.60;49.20
42885;DHT22;28534;48.100;11.584;2024-01-16T03:09:34;21.70;49.20
42885;DHT22;28534;48.100;11.584;2024-01-16T03:10:35;21.70;49.00
42885;DHT22;28534;48.100;11.584;2024-01-16T03:11:36;21.80;49.00
42885;DHT22;28534;48.100;11.584;2024-01-16T03:12:37;21.80;49.00
42885;DHT22;28534;48.100;11.584;2024-01-16T03:13:39;21.70;49.00
42885;DHT22;28534;48.100;11.584;2024-01-16T03:14:39;21.70;49.20
42885;DHT22;28534;48.100;11.584;2024-01-16T03:15:41;21.70;49.20
42885;DHT22;28534;48.100;11.584;2024-01-16T03:16:42;21.80;49.20
42885;DHT22;28534;48.100;11.584;2024-01-16T03:17:44;21.70;49.30
42885;DHT22;28534;48.100;11.584;2024-01-16T03:18:45;21.60;49.20
42885;DHT22;28534;48.100;11.584;2024-01-16T03:19:47;21.60;49.30
42885;DHT22;28534;48.100;11.584;2024-01-16T03:20:48;21.60;49.20
42885;DHT22;28534;48.100;11.584;2024-01-16T03:21:48;21.70;49.20
42885;DHT22;28534;48.100;11.584;2024-01-16T03:22:50;21.70;49.10
42885;DHT22;28534;48.100;11.584;2024-01-16T03:23:50;21.80;49.20
42885;DHT22;28534;48.100;11.584;2024-01-16T03:24:53;21.70;49.10
42885;DHT22;28534;48.100;11.584;2024-01-16T03:25:54;21.70;49.20
42885;DHT22;28534;48.100;11.584;2024-01-16T03:26:56;21.60;49.30
42885;DHT22;28534;48.100;11.584;2024-01-16T03:27:56;21.60;49.30
42885;DHT22;28534;48.100;11.584;2024-01-16T03:28:58;21.50;49.40
42885;DHT22;28534;48.100;11.584;2024-01-16T03:29:59;21.50;49.30
42885;DHT22;28534;48.100;11.584;2024-01-16T03:30:59;21.60;49.40
42885;DHT22;28534;48.100;11.584;2024-01-16T03:32:01;21.60;49.40
42885;DHT22;28534;48.100;11.584;2024-01-16T03:33:02;21.60;49.30
42885;DHT22;28534;48.100;11.584;2024-01-16T03:34:03;21.60;49.30
42885;DHT22;28534;48.100;11.584;2024-01-16T03:35:04;21.70;49.30
42885;DHT22;28534;48.100;11.584;2024-01-16T03:36:06;21.70;49.30
42885;DHT22;28534;48.100;11.584;2024-01-16T03:37:07;21.60;49.20
42885;DHT22;28534;48.100;11.584;2024-01-16T03:38:08;21.60;49.30
42885;DHT22;28534;48.100;11.584;2024-01-16T03:39:09;21.60;49.30
42885;DHT22;28534;48.100;11.584;2024-01-16T03:40:13;21.70;49.40
42885;DHT22;28534;48.100;11.584;2024-01-16T03:41:14;21.70;49.70
42885;DHT22;28534;48.100;11.584;2024-01-16T03:42:15;21.60;49.80
42885;DHT22;28534;48.100;11.584;2024-01-16T03:43:16;21.40;49.90
42885;DHT22;28534;48.100;11.584;2024-01-16T03:44:17;21.30;50.00
42885;DHT22;28534;48.100;11.584;2024-01-16T03:45:18;21.40;50.80
42885;DHT22;28534;48.100;11.584;2024-01-16T03:46:19;21.20;50.20
42885;DHT22;28534;48.100;11.584;2024-01-16T03:47:19;21.20;50.30
42885;DHT22;28534;48.100;11.584;2024-01-16T03:48:21;21.20;50.40
42885;DHT22;28534;48.100;11.584;2024-01-16T03:49:22;21.10;50.40
42885;DHT22;28534;48.100;11.584;2024-01-16T03:50:23;21.10;50.60
42885;DHT22;28534;48.100;11.584;2024-01-16T03:51:24;21.00;50.70
42885;DHT22;28534;48.100;11.584;2024-01-16T03:52:25;21.10;50.70
42885;DHT22;28534;48.100;11.584;2024-01-16T03:53:26;21.10;50.80
42885;DHT22;28534;48.100;11.584;2024-01-16T03:54:28;21.00;50.80
42885;DHT22;28534;48.100;11.584;2024-01-16T03:55:30;21.00;50.80
42885;DHT22;28534;48.100;11.584;2024-01-16T03:56:31;21.00;50.80
42885;DHT22;28534;48.100;11.584;2024-01-16T03:57:32;21.00;50.80
42885;DHT22;28534;48.100;11.584;2024-01-16T03:58:33;21.00;50.80
42885;DHT22;28534;48.100;11.584;2024-01-16T03:59:36;21.10;50.80
42885;DHT22;28534;48.100;11.584;2024-01-16T04:00:38;21.20;50.80
42885;DHT22;28534;48.100;11.584;2024-01-16T04:01:38;21.10;50.70
42885;DHT22;28534;48.100;11.584;2024-01-16T04:02:41;21.10;50.70
42885;DHT22;28534;48.100;11.584;2024-01-16T04:03:41;21.10;50.60
42885;DHT22;28534;48.100;11.584;2024-01-16T04:04:43;21.10;50.50
42885;DHT22;28534;48.100;11.584;2024-01-16T04:05:44;21.20;50.40
42885;DHT22;28534;48.100;11.584;2024-01-16T04:06:45;21.40;50.20
42885;DHT22;28534;48.100;11.584;2024-01-16T04:07:46;21.30;50.10
42885;DHT22;28534;48.100;11.584;2024-01-16T04:08:48;21.40;50.00
42885;DHT22;28534;48.100;11.584;2024-01-16T04:09:48;21.40;49.90
42885;DHT22;28534;48.100;11.584;2024-01-16T04:10:51;21.40;49.80
42885;DHT22;28534;48.100;11.584;2024-01-16T04:11:52;21.50;49.80
42885;DHT22;28534;48.100;11.584;2024-01-16T04:12:53;21.40;49.70
42885;DHT22;28534;48.100;11.584;2024-01-16T04:13:54;21.50;49.80
42885;DHT22;28534;48.100;11.584;2024-01-16T04:14:55;21.40;49.70
42885;DHT22;28534;48.100;11.584;2024-01-16T04:15:56;21.50;49.80
42885;DHT22;28534;48.100;11.584;2024-01-16T04:16:58;21.40;49.80
42885;DHT22;28534;48.100;11.584;2024-01-16T04:17:58;21.40;49.60
42885;DHT22;28534;48.100;11.584;2024-01-16T04:19:00;21.50;49.70
42885;DHT22;28534;48.100;11.584;2024-01-16T04:20:01;21.60;49.80
42885;DHT22;28534;48.100;11.584;2024-01-16T04:21:02;21.50;49.70
42885;DHT22;28534;48.100;11.584;2024-01-16T04:22:04;21.50;49.80
42885;DHT22;28534;48.100;11.584;2024-01-16T04:23:05;21.60;49.70
42885;DHT22;28534;48.100;11.584;2024-01-16T04:24:07;21.60;49.60
42885;DHT22;28534;48.100;11.584;2024-01-16T04:25:07;21.50;49.70
42885;DHT22;28534;48.100;11.584;2024-01-16T04:26:11;21.60;49.60
42885;DHT22;28534;48.100;11.584;2024-01-16T04:27:11;21.60;49.40
42885;DHT22;28534;48.100;11.584;2024-01-16T04:28:12;21.80;49.50
42885;DHT22;28534;48.100;11.584;2024-01-16T04:29:14;21.70;49.40
42885;DHT22;28534;48.100;11.584;2024-01-16T04:30:14;21.70;49.30
42885;DHT22;28534;48.100;11.584;2024-01-16T04:31:16;21.70;49.30
42885;DHT22;28534;48.100;11.584;2024-01-16T04:32:17;21.70;49.20
42885;DHT22;28534;48.100;11.584;2024-01-16T04:33:18;21.80;49.20
42885;DHT22;28534;48.100;11.584;2024-01-16T04:34:20;21.80;49.20
42885;DHT22;28534;48.100;11.584;2024-01-16T04:35:20;21.80;49.10
42885;DHT22;28534;48.100;11.584;2024-01-16T04:36:22;21.80;49.10
42885;DHT22;28534;48.100;11.584;2024-01-16T04:37:23;21.80;49.10
42885;DHT22;28534;48.100;11.584;2024-01-16T04:38:24;21.80;49.00
42885;DHT22;28534;48.100;11.584;2024-01-16T04:39:26;21.90;49.00
42885;DHT22;28534;48.100;11.584;2024-01-16T04:40:26;21.90;48.90
42885;DHT22;28534;48.100;11.584;2024-01-16T04:41:28;22.00;49.00
42885;DHT22;28534;48.100;11.584;2024-01-16T04:42:30;22.00;48.90
42885;DHT22;28534;48.100;11.584;2024-01-16T04:43:30;22.10;48.90
42885;DHT22;28534;48.100;11.584;2024-01-16T04:44:32;22.10;48.90
42885;DHT22;28534;48.100;11.584;2024-01-16T04:45:33;22.00;48.80
42885;DHT22;28534;48.100;11.584;2024-01-16T04:46:34;22.00;48.80
42885;DHT22;28534;48.100;11.584;2024-01-16T04:47:35;22.00;48.70
42885;DHT22;28534;48.100;11.584;2024-01-16T04:48:36;22.10;48.80
42885;DHT22;28534;48.100;11.584;2024-01-16T04:49:37;22.00;48.60
42885;DHT22;28534;48.100;11.584;2024-01-16T04:50:39;22.10;48.60
42885;DHT22;28534;48.100;11.584;2024-01-16T04:51:39;22.10;48.60
42885;DHT22;28534;48.100;11.584;2024-01-16T04:52:41;22.20;48.60
42885;DHT22;28534;48.100;11.584;2024-01-16T04:53:41;22.10;48.50
42885;DHT22;28534;48.100;11.584;2024-01-16T04:54:43;22.20;48.50
42885;DHT22;28534;48.100;11.584;2024-01-16T04:55:45;22.20;48.30
42885;DHT22;28534;48.100;11.584;2024-01-16T04:56:48;22.30;48.30
42885;DHT22;28534;48.100;11.584;2024-01-16T04:57:49;22.30;48.30
42885;DHT22;28534;48.100;11.584;2024-01-16T04:58:50;22.20;48.20
42885;DHT22;28534;48.100;11.584;2024-01-16T04:59:52;22.30;48.30
42885;DHT22;28534;48.100;11.584;2024-01-16T05:00:54;22.30;48.00
42885;DHT22;28534;48.100;11.584;2024-01-16T05:01:54;22.30;48.00
42885;DHT22;28534;48.100;11.584;2024-01-16T05:02:56;22.40;48.60
42885;DHT22;28534;48.100;11.584;2024-01-16T05:03:57;22.40;48.00
42885;DHT22;28534;48.100;11.584;2024-01-16T05:04:58;22.40;48.00
42885;DHT22;28534;48.100;11.584;2024-01-16T05:05:59;22.40;47.90
42885;DHT22;28534;48.100;11.584;2024-01-16T05:07:01;22.40;47.90
42885;DHT22;28534;48.100;11.584;2024-01-16T05:08:01;22.50;48.00
42885;DHT22;28534;48.100;11.584;2024-01-16T05:09:03;22.40;47.90
42885;DHT22;28534;48.100;11.584;2024-01-16T05:10:05;22.40;48.00
42885;DHT22;28534;48.100;11.584;2024-01-16T05:11:06;22.50;47.80
42885;DHT22;28534;48.100;11.584;2024-01-16T05:12:08;22.50;47.90
42885;DHT22;28534;48.100;11.584;2024-01-16T05:13:10;22.50;47.80
42885;DHT22;28534;48.100;11.584;2024-01-16T05:14:12;22.50;47.70
42885;DHT22;28534;48.100;11.584;2024-01-16T05:15:14;22.50;47.70
42885;DHT22;28534;48.100;11.584;2024-01-16T05:16:15;22.50;47.70
42885;DHT22;28534;48.100;11.584;2024-01-16T05:17:16;22.50;47.70
42885;DHT22;28534;48.100;11.584;2024-01-16T05:18:17;22.50;47.70
42885;DHT22;28534;48.100;11.584;2024-01-16T05:19:18;22.50;47.80
42885;DHT22;28534;48.100;11.584;2024-01-16T05:20:19;22.50;47.80
42885;DHT22;28534;48.100;11.584;2024-01-16T05:21:21;22.70;47.80
42885;DHT22;28534;48.100;11.584;2024-01-16T05:22:22;22.60;47.70
42885;DHT22;28534;48.100;11.584;2024-01-16T05:23:25;22.50;47.70
42885;DHT22;28534;48.100;11.584;2024-01-16T05:24:26;22.50;47.70
42885;DHT22;28534;48.100;11.584;2024-01-16T05:25:28;22.60;47.70
42885;DHT22;28534;48.100;11.584;2024-01-16T05:26:28;22.70;47.70
42885;DHT22;28534;48.100;11.584;2024-01-16T05:27:31;22.60;47.60
42885;DHT22;28534;48.100;11.584;2024-01-16T05:28:32;22.60;47.50
42885;DHT22;28534;48.100;11.584;2024-01-16T05:29:33;22.70;47.50
42885;DHT22;28534;48.100;11.584;2024-01-16T05:30:34;22.70;47.50
42885;DHT22;28534;48.100;11.584;2024-01-16T05:31:39;22.70;47.50
42885;DHT22;28534;48.100;11.584;2024-01-16T05:32:39;22.70;47.40
42885;DHT22;28534;48.100;11.584;2024-01-16T05:33:41;22.70;47.50
42885;DHT22;28534;48.100;11.584;2024-01-16T05:34:42;22.80;47.60
42885;DHT22;28534;48.100;11.584;2024-01-16T05:35:43;22.70;47.50
42885;DHT22;28534;48.100;11.584;2024-01-16T05:36:44;22.70;47.50
42885;DHT22;28534;48.100;11.584;2024-01-16T05:37:46;22.70;47.50
42885;DHT22;28534;48.100;11.584;2024-01-16T05:38:46;22.70;47.50
42885;DHT22;28534;48.100;11.584;2024-01-16T05:39:48;22.70;47.50
42885;DHT22;28534;48.100;11.584;2024-01-16T05:40:48;22.70;48.10
42885;DHT22;28534;48.100;11.584;2024-01-16T05:41:50;22.70;47.50
42885;DHT22;28534;48.100;11.584;2024-01-16T05:42:52;22.70;47.50
42885;DHT22;28534;48.100;11.584;2024-01-16T05:43:53;22.70;47.50
42885;DHT22;28534;48.100;11.584;2024-01-16T05:44:54;22.70;47.40
42885;DHT22;28534;48.100;11.584;2024-01-16T05:45:55;22.70;47.30
42885;DHT22;28534;48.100;11.584;2024-01-16T05:46:57;22.70;47.40
42885;DHT22;28534;48.100;11.584;2024-01-16T05:47:57;22.80;47.40
42885;DHT22;28534;48.100;11.584;2024-01-16T05:48:59;22.90;47.40
42885;DHT22;28534;48.100;11.584;2024-01-16T05:49:59;22.80;47.30
42885;DHT22;28534;48.100;11.584;2024-01-16T05:51:00;22.80;47.30
42885;DHT22;28534;48.100;11.584;2024-01-16T05:52:02;22.90;47.30
42885;DHT22;28534;48.100;11.584;2024-01-16T05:53:02;22.80;47.20
42885;DHT22;28534;48.100;11.584;2024-01-16T05:54:03;22.80;47.20
42885;DHT22;28534;48.100;11.584;2024-01-16T05:55:06;22.80;47.30
42885;DHT22;28534;48.100;11.584;2024-01-16T05:56:06;22.80;47.30
42885;DHT22;28534;48.100;11.584;2024-01-16T05:57:08;22.80;47.30
42885;DHT22;28534;48.100;11.584;2024-01-16T05:58:10;22.80;47.40
42885;DHT22;28534;48.100;11.584;2024-01-16T05:59:11;22.80;47.40
42885;DHT22;28534;48.100;11.584;2024-01-16T06:00:13;22.80;47.30
42885;DHT22;28534;48.100;11.584;2024-01-16T06:01:14;22.80;47.30
42885;DHT22;28534;48.100;11.584;2024-01-16T06:02:15;22.80;47.40
42885;DHT22;28534;48.100;11.584;2024-01-16T06:03:17;22.80;47.50
42885;DHT22;28534;48.100;11.584;2024-01-16T06:04:17;22.90;47.60
42885;DHT22;28534;48.100;11.584;2024-01-16T06:05:19;22.80;47.80
42885;DHT22;28534;48.100;11.584;2024-01-16T06:06:20;22.80;47.80
42885;DHT22;28534;48.100;11.584;2024-01-16T06:07:21;22.90;48.00
42885;DHT22;28534;48.100;11.584;2024-01-16T06:08:22;22.80;48.00
42885;DHT22;28534;48.100;11.584;2024-01-16T06:09:22;22.90;48.10
42885;DHT22;28534;48.100;11.584;2024-01-16T06:10:24;22.90;48.20
42885;DHT22;28534;48.100;11.584;2024-01-16T06:11:29;22.80;48.20
42885;DHT22;28534;48.100;11.584;2024-01-16T06:12:29;22.80;48.10
42885;DHT22;28534;48.100;11.584;2024-01-16T06:13:32;22.80;48.20
42885;DHT22;28534;48.100;11.584;2024-01-16T06:14:33;22.80;48.20
42885;DHT22;28534;48.100;11.584;2024-01-16T06:15:35;22.90;48.20
42885;DHT22;28534;48.100;11.584;2024-01-16T06:16:35;22.80;48.20
42885;DHT22;28534;48.100;11.584;2024-01-16T06:17:37;22.80;48.20
42885;DHT22;28534;48.100;11.584;2024-01-16T06:18:37;22.80;48.20
42885;DHT22;28534;48.100;11.584;2024-01-16T06:19:39;22.80;48.20
42885;DHT22;28534;48.100;11.584;2024-01-16T06:20:40;22.90;48.40